Terminal Aerodrome Forecast
Issued by NWS

Home | Current Version | Previous Version | Text Only | Print | Product List | Glossary On
Versions: 1 2 3 4 5 6 7 8 9 10 11 12 13 14 15 16 17 18 19 20 21 22 23 24 25 26 27 28 29 30 31 32 33 34 35 36 37 38 39 40 41 42 43 44 45 46 47 48 49 50
000
FTUS45 KBOU 030058 AAA
TAFBJC
TAF AMD
KBJC 030058Z 0301/0324 16005KT P6SM VCSH SCT090 BKN120 BKN200
     FM030200 25008KT P6SM SCT100 BKN150
     FM031000 29007KT P6SM FEW110 SCT200
     FM031400 32007KT P6SM SCT080 BKN120
     FM031800 04007KT P6SM SCT080 BKN120
     FM032100 21008KT P6SM VCSH BKN080 PROB30 0321/0324 VRB20G30KT
      -TSRA BKN080CB=

USA.gov is the U.S. government's official web portal to all federal, state and local government web resources and services.